Decoded Metar for KAWO (ARLINGTON MUNI in WA, USA) (IATA:AWO) | Meteo·Mobile Aviation Weather
aviador You're here:

KAWO Decoded Metar

ARLINGTON MUNI in WA, USA
Report Time2018-12-18 17:56:00
UTC Time2018-12-18 18:13:06
Flight Rules mvfr MVFR
Wind190° at 12 Gusting to 17 kt
W.Decomp.*RWY 16: 11.7 kt HW 2.7 kt RCW
RWY 11: 5.4 kt HW 10.7 kt RCW
W.Rank190° ranks 17
Current wind is above 190° avg. (6.1)
Visibility9999 m
Phenomena:N/A
Clouds:Overcast 016 Hf
Expected CloudBase > 800 ft AGL from Temp-Dew spread
Ceiling1,600 ft
Temp10°C (ISA -5)
Dew Point08°C (88% RH)
AAT5.2°C
QNH1004 hPa
Density Alt26 ft
Elevation138 ft
Report Wrong Elevation
Raw Report
KAWO 181756Z AUTO 19012G17KT 10SM OVC016 10/08 A2965 RMK AO2
RAB28E43 SLP044 P0000 60006 T01000078 10100 20089 53034=

Extra information for KAWO:More info

Metar Taf Metar & Taf Last 4 Metars F.Rules Stats Wind Profile Meteogram Temp Stats Airport Information Weather charts Add Link Nearby VenuesMetar ALERT Operation Metar Decoded Social comments

AIRNAV info for KAWO